createdAt,value
2022-12-25T00:01:22.172Z,4.80
2022-12-25T00:03:50.411Z,5.97
2022-12-25T00:06:18.689Z,4.87
2022-12-25T00:08:47.847Z,7.50
2022-12-25T00:11:17.905Z,4.70
2022-12-25T00:13:45.972Z,3.67
2022-12-25T00:16:17.499Z,4.50
2022-12-25T00:18:46.573Z,5.63
2022-12-25T00:21:15.509Z,4.40
2022-12-25T00:23:43.679Z,5.90
2022-12-25T00:26:14.633Z,4.93
2022-12-25T00:28:42.529Z,6.00
2022-12-25T00:31:16.199Z,4.60
2022-12-25T00:33:48.716Z,5.60
2022-12-25T00:36:18.464Z,7.10
2022-12-25T00:38:47.064Z,4.53
2022-12-25T00:41:16.403Z,15.60
2022-12-25T00:43:44.985Z,3.23
2022-12-25T00:46:13.912Z,4.03
2022-12-25T00:48:45.178Z,10.33
2022-12-25T00:51:14.193Z,4.57
2022-12-25T00:53:42.275Z,7.87
2022-12-25T00:56:11.337Z,4.73
2022-12-25T00:58:39.034Z,3.47
2022-12-25T01:01:06.765Z,2.57
2022-12-25T01:03:34.464Z,2.63
2022-12-25T01:06:03.968Z,1.73
2022-12-25T01:08:34.680Z,2.87
2022-12-25T01:11:04.124Z,4.77
2022-12-25T01:13:32.339Z,4.10
2022-12-25T01:16:00.041Z,2.60
2022-12-25T01:18:27.885Z,2.83
2022-12-25T01:20:55.518Z,3.73
2022-12-25T01:23:23.130Z,1.97
2022-12-25T01:25:52.115Z,2.20
2022-12-25T01:28:19.780Z,2.97
2022-12-25T01:30:49.875Z,2.50
2022-12-25T01:33:17.519Z,2.93
2022-12-25T01:35:45.161Z,3.50
2022-12-25T01:38:12.808Z,3.73
2022-12-25T01:40:40.872Z,2.07
2022-12-25T01:43:22.993Z,3.13
2022-12-25T01:45:52.641Z,2.97
2022-12-25T01:48:26.095Z,2.70
2022-12-25T01:50:57.914Z,2.63
2022-12-25T01:53:26.794Z,1.80
2022-12-25T01:55:58.602Z,2.70
2022-12-25T01:58:27.867Z,1.67
2022-12-25T02:00:55.520Z,1.67
2022-12-25T02:03:23.863Z,1.87
2022-12-25T02:05:51.975Z,2.23
2022-12-25T02:08:21.927Z,1.00
2022-12-25T02:10:49.733Z,2.07
2022-12-25T02:13:20.362Z,2.50
2022-12-25T02:16:01.976Z,2.27
2022-12-25T02:18:38.411Z,1.50
2022-12-25T02:21:28.658Z,2.20
2022-12-25T02:24:10.744Z,1.60
2022-12-25T02:26:57.892Z,3.20
2022-12-25T02:29:33.507Z,1.30
2022-12-25T02:32:06.315Z,0.90
2022-12-25T02:35:14.640Z,1.67
2022-12-25T02:37:50.679Z,1.20
2022-12-25T02:40:20.932Z,1.40
2022-12-25T02:43:14.887Z,1.50
2022-12-25T02:46:04.044Z,1.53
2022-12-25T02:48:48.951Z,2.20
2022-12-25T02:51:39.270Z,1.20
2022-12-25T02:54:30.161Z,1.00
2022-12-25T02:57:17.621Z,1.30
2022-12-25T03:00:02.985Z,1.10
2022-12-25T03:02:53.197Z,1.57
2022-12-25T03:05:43.681Z,2.33
2022-12-25T03:08:17.565Z,1.13
2022-12-25T03:11:08.771Z,1.40
2022-12-25T03:13:40.676Z,1.20
2022-12-25T03:16:27.811Z,1.87
2022-12-25T03:18:56.928Z,1.47
2022-12-25T03:21:43.356Z,1.90
2022-12-25T03:24:28.358Z,1.20
2022-12-25T03:26:57.968Z,0.90
2022-12-25T03:29:45.105Z,1.40
2022-12-25T03:32:23.679Z,1.10
2022-12-25T03:35:17.498Z,1.20
2022-12-25T03:38:14.913Z,1.50
2022-12-25T03:41:14.350Z,3.13
2022-12-25T03:44:05.476Z,1.20
2022-12-25T03:46:54.202Z,1.30
2022-12-25T03:49:44.824Z,2.00
2022-12-25T03:52:33.160Z,1.73
2022-12-25T03:55:24.053Z,1.93
2022-12-25T03:58:09.128Z,1.67
2022-12-25T04:00:54.736Z,2.83
2022-12-25T04:03:40.163Z,1.53
2022-12-25T04:06:25.195Z,2.30
2022-12-25T04:09:10.273Z,1.37
2022-12-25T04:12:02.159Z,1.73
2022-12-25T04:14:47.940Z,1.57
2022-12-25T04:17:39.631Z,1.93
2022-12-25T04:20:26.149Z,0.93
2022-12-25T04:23:11.496Z,2.40
2022-12-25T04:25:56.956Z,1.63
2022-12-25T04:28:44.047Z,1.47
2022-12-25T04:31:29.250Z,3.57
2022-12-25T04:34:14.522Z,1.93
2022-12-25T04:36:42.143Z,2.43
2022-12-25T04:39:10.444Z,3.03
2022-12-25T04:41:38.185Z,2.00
2022-12-25T04:44:07.141Z,1.30
2022-12-25T04:46:34.799Z,3.00
2022-12-25T04:49:02.505Z,1.27
2022-12-25T04:51:30.115Z,1.43
2022-12-25T04:53:57.801Z,2.10
2022-12-25T04:56:25.507Z,1.87
2022-12-25T04:58:53.129Z,1.00
2022-12-25T05:01:22.321Z,1.30
2022-12-25T05:03:50.022Z,3.13
2022-12-25T05:06:17.712Z,1.23
2022-12-25T05:08:45.340Z,1.47
2022-12-25T05:11:15.261Z,2.53
2022-12-25T05:13:43.397Z,3.70
2022-12-25T05:16:15.153Z,1.10
2022-12-25T05:18:44.504Z,1.80
2022-12-25T05:21:12.875Z,1.20
2022-12-25T05:23:48.241Z,2.33
2022-12-25T05:26:17.807Z,1.63
2022-12-25T05:28:45.900Z,1.40
2022-12-25T05:31:13.620Z,1.00
2022-12-25T05:33:41.341Z,1.07
2022-12-25T05:36:12.803Z,3.57
2022-12-25T05:38:40.833Z,1.37
2022-12-25T05:41:08.484Z,1.77
2022-12-25T05:43:36.170Z,1.83
2022-12-25T05:46:07.047Z,1.40
2022-12-25T05:48:35.655Z,1.53
2022-12-25T05:51:05.522Z,1.10
2022-12-25T05:53:34.555Z,1.97
2022-12-25T05:56:03.999Z,3.03
2022-12-25T05:58:32.611Z,1.23
2022-12-25T06:01:00.525Z,1.00
2022-12-25T06:03:28.568Z,4.30
2022-12-25T06:05:56.297Z,1.77
2022-12-25T06:08:23.908Z,1.90
2022-12-25T06:10:52.881Z,2.97
2022-12-25T06:13:20.541Z,1.50
2022-12-25T06:15:48.185Z,1.93
2022-12-25T06:18:16.960Z,1.93
2022-12-25T06:20:44.605Z,1.90
2022-12-25T06:23:12.299Z,1.10
2022-12-25T06:25:40.472Z,1.67
2022-12-25T06:28:09.750Z,1.67
2022-12-25T06:30:37.386Z,1.40
2022-12-25T06:33:05.091Z,1.33
2022-12-25T06:35:32.872Z,2.30
2022-12-25T06:38:00.507Z,1.83
2022-12-25T06:40:28.116Z,2.90
2022-12-25T06:42:55.749Z,1.17
2022-12-25T06:45:24.780Z,1.70
2022-12-25T06:47:52.535Z,2.37
2022-12-25T06:50:20.164Z,1.30
2022-12-25T06:52:47.802Z,1.87
2022-12-25T06:55:15.466Z,2.50
2022-12-25T06:57:43.294Z,2.60
2022-12-25T07:00:11.918Z,1.57
2022-12-25T07:02:46.317Z,1.43
2022-12-25T07:05:13.978Z,1.67
2022-12-25T07:07:41.644Z,2.50
2022-12-25T07:10:10.204Z,2.03
2022-12-25T07:12:37.872Z,2.03
2022-12-25T07:15:06.626Z,1.83
2022-12-25T07:17:35.744Z,5.00
2022-12-25T07:20:05.157Z,1.13
2022-12-25T07:22:33.790Z,2.43
2022-12-25T07:25:01.389Z,1.67
2022-12-25T07:27:29.157Z,1.67
2022-12-25T07:29:56.785Z,1.57
2022-12-25T07:32:24.495Z,1.93
2022-12-25T07:34:52.110Z,2.43
2022-12-25T07:37:21.039Z,1.43
2022-12-25T07:39:48.788Z,2.33
2022-12-25T07:42:19.337Z,1.10
2022-12-25T07:44:51.214Z,1.83
2022-12-25T07:47:18.839Z,1.53
2022-12-25T07:49:46.464Z,2.60
2022-12-25T07:52:14.191Z,1.10
2022-12-25T07:54:43.154Z,1.93
2022-12-25T07:57:10.805Z,2.23
2022-12-25T07:59:38.424Z,1.20
2022-12-25T08:02:06.368Z,1.73
2022-12-25T08:04:34.281Z,1.50
2022-12-25T08:07:01.965Z,1.23
2022-12-25T08:09:29.694Z,1.67
2022-12-25T08:11:58.627Z,1.33
2022-12-25T08:14:26.263Z,1.87
2022-12-25T08:16:53.955Z,2.20
2022-12-25T08:19:21.604Z,1.30
2022-12-25T08:21:49.261Z,1.73
2022-12-25T08:24:16.912Z,1.17
2022-12-25T08:26:44.546Z,1.97
2022-12-25T08:29:13.669Z,1.57
2022-12-25T08:31:46.059Z,1.30
2022-12-25T08:34:14.804Z,1.30
2022-12-25T08:36:42.546Z,1.30
2022-12-25T08:39:10.174Z,1.50
2022-12-25T08:41:37.805Z,1.20
2022-12-25T08:44:06.315Z,1.20
2022-12-25T08:46:36.623Z,1.43
2022-12-25T08:49:04.411Z,1.00
2022-12-25T08:51:32.207Z,1.10
2022-12-25T08:54:01.614Z,1.03
2022-12-25T08:56:29.631Z,1.20
2022-12-25T08:58:57.254Z,0.97
2022-12-25T09:01:25.210Z,3.03
2022-12-25T09:03:54.608Z,1.30
2022-12-25T09:06:22.312Z,3.73
2022-12-25T09:08:50.135Z,1.83
2022-12-25T09:11:20.148Z,1.93
2022-12-25T09:13:48.654Z,2.57
2022-12-25T09:16:20.170Z,2.13
2022-12-25T09:18:48.584Z,1.33
2022-12-25T09:21:18.802Z,1.40
2022-12-25T09:23:46.522Z,1.57
2022-12-25T09:26:17.530Z,2.50
2022-12-25T09:28:51.419Z,2.10
2022-12-25T09:31:20.577Z,2.00
2022-12-25T09:33:48.401Z,1.30
2022-12-25T09:36:17.763Z,1.30
2022-12-25T09:38:45.435Z,1.37
2022-12-25T09:41:18.353Z,1.33
2022-12-25T09:43:50.219Z,1.83
2022-12-25T09:46:21.314Z,1.77
2022-12-25T09:48:58.225Z,2.83
2022-12-25T09:51:30.601Z,5.03
2022-12-25T09:54:04.789Z,3.40
2022-12-25T09:56:33.558Z,1.20
2022-12-25T09:59:01.186Z,4.47
2022-12-25T10:01:35.105Z,2.60
2022-12-25T10:04:25.336Z,1.13
2022-12-25T10:07:06.508Z,2.20
2022-12-25T10:09:53.457Z,1.57
2022-12-25T10:12:37.137Z,1.63
2022-12-25T10:15:15.337Z,1.73
2022-12-25T10:18:01.618Z,1.17
2022-12-25T10:20:41.342Z,1.70
2022-12-25T10:23:17.158Z,1.50
2022-12-25T10:25:46.001Z,1.80
2022-12-25T10:28:16.210Z,2.83
2022-12-25T10:30:45.923Z,2.07
2022-12-25T10:33:17.406Z,1.23
2022-12-25T10:35:46.177Z,2.10
2022-12-25T10:38:17.920Z,2.37
2022-12-25T10:41:01.163Z,1.20
2022-12-25T10:43:37.199Z,3.70
2022-12-25T10:46:12.506Z,1.60
2022-12-25T10:48:43.803Z,1.33
2022-12-25T10:51:11.629Z,1.67
2022-12-25T10:53:43.828Z,1.10
2022-12-25T10:56:17.233Z,3.47
2022-12-25T10:58:45.030Z,1.77
2022-12-25T11:01:13.534Z,1.33
2022-12-25T11:03:44.947Z,0.90
2022-12-25T11:06:23.513Z,1.57
2022-12-25T11:08:55.991Z,1.60
2022-12-25T11:11:23.996Z,2.70
2022-12-25T11:13:53.903Z,2.80
2022-12-25T11:16:30.348Z,1.90
2022-12-25T11:18:59.959Z,3.30
2022-12-25T11:21:29.511Z,2.17
2022-12-25T11:24:00.322Z,7.87
2022-12-25T11:26:29.770Z,1.63
2022-12-25T11:28:58.973Z,3.07
2022-12-25T11:31:36.965Z,1.70
2022-12-25T11:34:08.684Z,1.40
2022-12-25T11:36:45.278Z,1.37
2022-12-25T11:39:22.928Z,1.47
2022-12-25T11:41:54.522Z,2.23
2022-12-25T11:44:34.409Z,1.87
2022-12-25T11:47:12.753Z,3.13
2022-12-25T11:49:50.099Z,2.97
2022-12-25T11:52:20.436Z,1.23
2022-12-25T11:54:55.893Z,2.20
2022-12-25T11:57:27.349Z,4.63
2022-12-25T11:59:59.682Z,1.20
2022-12-25T12:02:34.500Z,2.90
2022-12-25T12:05:09.235Z,3.33
2022-12-25T12:07:40.961Z,1.93
2022-12-25T12:10:17.460Z,1.63
2022-12-25T12:12:54.232Z,1.67
2022-12-25T12:15:29.492Z,1.90
2022-12-25T12:18:08.124Z,1.63
2022-12-25T12:20:37.618Z,1.53
2022-12-25T12:23:14.521Z,1.10
2022-12-25T12:25:45.549Z,1.60
2022-12-25T12:28:21.557Z,1.33
2022-12-25T12:30:59.417Z,1.53
2022-12-25T12:33:33.557Z,1.30
2022-12-25T12:36:03.146Z,3.50
2022-12-25T12:38:33.492Z,1.27
2022-12-25T12:41:03.910Z,3.00
2022-12-25T12:43:37.618Z,2.03
2022-12-25T12:46:14.441Z,3.60
2022-12-25T12:48:44.169Z,2.97
2022-12-25T12:51:14.426Z,1.50
2022-12-25T12:53:43.333Z,2.23
2022-12-25T12:56:17.838Z,1.07
2022-12-25T12:58:51.071Z,1.13
2022-12-25T13:01:33.341Z,1.60
2022-12-25T13:04:21.650Z,1.97
2022-12-25T13:06:57.037Z,1.83
2022-12-25T13:09:36.555Z,2.10
2022-12-25T13:12:08.677Z,2.17
2022-12-25T13:14:37.933Z,1.60
2022-12-25T13:17:08.617Z,2.10
2022-12-25T13:19:38.169Z,3.13
2022-12-25T13:22:07.177Z,3.63
2022-12-25T13:24:37.039Z,2.90
2022-12-25T13:27:23.797Z,1.87
2022-12-25T13:29:51.726Z,1.57
2022-12-25T13:32:26.684Z,2.17
2022-12-25T13:34:55.131Z,1.80
2022-12-25T13:37:25.716Z,6.30
2022-12-25T13:39:55.665Z,3.43
2022-12-25T13:42:27.017Z,1.57
2022-12-25T13:44:58.735Z,1.77
2022-12-25T13:47:30.817Z,3.67
2022-12-25T13:50:00.116Z,2.03
2022-12-25T13:52:33.348Z,2.00
2022-12-25T13:55:03.050Z,6.70
2022-12-25T13:57:38.324Z,2.13
2022-12-25T14:00:09.017Z,2.43
2022-12-25T14:02:38.845Z,2.60
2022-12-25T14:05:24.505Z,2.00
2022-12-25T14:07:53.037Z,1.70
2022-12-25T14:10:22.016Z,1.30
2022-12-25T14:12:52.387Z,4.90
2022-12-25T14:15:22.533Z,4.30
2022-12-25T14:17:51.582Z,2.40
2022-12-25T14:20:25.891Z,1.97
2022-12-25T14:22:56.410Z,5.27
2022-12-25T14:25:30.402Z,1.80
2022-12-25T14:28:01.334Z,1.43
2022-12-25T14:30:30.600Z,1.67
2022-12-25T14:32:58.842Z,1.67
2022-12-25T14:35:26.739Z,2.87
2022-12-25T14:37:59.933Z,3.23
2022-12-25T14:40:30.352Z,1.90
2022-12-25T14:43:01.693Z,2.10
2022-12-25T14:45:32.825Z,1.63
2022-12-25T14:48:04.193Z,3.27
2022-12-25T14:50:36.410Z,2.20
2022-12-25T14:53:04.177Z,1.40
2022-12-25T14:55:32.310Z,1.90
2022-12-25T14:58:04.865Z,1.70
2022-12-25T15:00:35.711Z,3.50
2022-12-25T15:03:05.872Z,3.37
2022-12-25T15:05:36.042Z,2.50
2022-12-25T15:08:18.369Z,2.50
2022-12-25T15:10:59.438Z,3.77
2022-12-25T15:13:31.228Z,3.30
2022-12-25T15:16:03.366Z,2.90
2022-12-25T15:18:35.418Z,2.70
2022-12-25T15:21:03.999Z,8.03
2022-12-25T15:23:31.657Z,3.70
2022-12-25T15:25:59.418Z,2.37
2022-12-25T15:28:27.067Z,5.90
2022-12-25T15:30:56.251Z,3.20
2022-12-25T15:33:23.927Z,4.00
2022-12-25T15:35:51.595Z,3.30
2022-12-25T15:38:19.246Z,4.43
2022-12-25T15:40:48.062Z,2.80
2022-12-25T15:43:39.305Z,4.87
2022-12-25T15:46:05.835Z,5.97
2022-12-25T15:48:33.539Z,3.90
2022-12-25T15:51:01.207Z,2.60
2022-12-25T15:53:28.809Z,2.30
2022-12-25T15:55:56.497Z,5.27
2022-12-25T15:58:24.162Z,8.53
2022-12-25T16:00:52.032Z,4.80
2022-12-25T16:03:21.176Z,2.87
2022-12-25T16:05:49.248Z,3.47
2022-12-25T16:08:16.923Z,5.03
2022-12-25T16:10:44.663Z,6.07
2022-12-25T16:13:12.317Z,3.80
2022-12-25T16:15:40.089Z,6.30
2022-12-25T16:18:08.012Z,7.50
2022-12-25T16:20:37.092Z,4.60
2022-12-25T16:23:04.774Z,4.63
2022-12-25T16:25:32.433Z,12.80
2022-12-25T16:28:00.051Z,5.90
2022-12-25T16:30:28.115Z,10.80
2022-12-25T16:32:56.106Z,4.70
2022-12-25T16:35:23.775Z,6.87
2022-12-25T16:37:52.741Z,10.13
2022-12-25T16:40:20.691Z,6.10
2022-12-25T16:42:48.610Z,6.97
2022-12-25T16:45:16.349Z,4.00
2022-12-25T16:47:43.967Z,4.93
2022-12-25T16:50:12.012Z,4.43
2022-12-25T16:52:39.643Z,5.43
2022-12-25T16:55:09.723Z,9.13
2022-12-25T16:57:37.401Z,7.53
2022-12-25T17:00:06.200Z,7.17
2022-12-25T17:02:34.014Z,5.20
2022-12-25T17:05:01.751Z,5.97
2022-12-25T17:07:29.374Z,7.73
2022-12-25T17:09:57.192Z,6.93
2022-12-25T17:12:26.259Z,8.13
2022-12-25T17:14:53.912Z,9.77
2022-12-25T17:17:21.672Z,11.70
2022-12-25T17:19:49.299Z,11.00
2022-12-25T17:22:17.062Z,7.67
2022-12-25T17:24:44.733Z,9.70
2022-12-25T17:27:12.548Z,9.70
2022-12-25T17:29:43.819Z,12.47
2022-12-25T17:32:12.359Z,8.20
2022-12-25T17:34:40.057Z,7.80
2022-12-25T17:37:07.745Z,12.70
2022-12-25T17:39:35.400Z,8.20
2022-12-25T17:42:03.037Z,9.63
2022-12-25T17:44:30.731Z,13.47
2022-12-25T17:46:59.818Z,13.00
2022-12-25T17:49:27.484Z,9.70
2022-12-25T17:51:55.218Z,8.47
2022-12-25T17:54:22.911Z,11.67
2022-12-25T17:56:51.557Z,10.93
2022-12-25T17:59:19.343Z,12.13
2022-12-25T18:01:49.033Z,7.90
2022-12-25T18:04:18.297Z,9.17
2022-12-25T18:06:46.323Z,10.63
2022-12-25T18:09:14.266Z,12.63
2022-12-25T18:11:43.512Z,12.27
2022-12-25T18:14:14.275Z,14.90
2022-12-25T18:16:44.122Z,14.53
2022-12-25T18:19:12.763Z,13.60
2022-12-25T18:21:42.282Z,10.17
2022-12-25T18:24:10.641Z,9.17
2022-12-25T18:26:38.331Z,8.80
2022-12-25T18:29:06.959Z,8.83
2022-12-25T18:31:35.053Z,8.07
2022-12-25T18:34:04.494Z,7.20
2022-12-25T18:36:32.777Z,6.77
2022-12-25T18:39:01.816Z,8.00
2022-12-25T18:41:30.313Z,6.87
2022-12-25T18:44:00.282Z,6.97
2022-12-25T18:46:28.395Z,5.40
2022-12-25T18:48:57.552Z,10.00
2022-12-25T18:51:29.890Z,10.83
2022-12-25T18:54:03.912Z,8.10
2022-12-25T18:56:31.570Z,6.07
2022-12-25T18:59:00.450Z,6.50
2022-12-25T19:01:28.257Z,9.30
2022-12-25T19:04:04.666Z,4.70
2022-12-25T19:06:33.477Z,2.37
2022-12-25T19:09:08.633Z,3.83
2022-12-25T19:11:41.996Z,2.33
2022-12-25T19:14:11.764Z,4.30
2022-12-25T19:16:39.509Z,2.30
2022-12-25T19:19:07.153Z,3.60
2022-12-25T19:21:36.122Z,5.70
2022-12-25T19:24:06.101Z,2.10
2022-12-25T19:26:35.918Z,4.53
2022-12-25T19:29:03.743Z,2.67
2022-12-25T19:31:31.536Z,1.50
2022-12-25T19:33:59.329Z,2.33
2022-12-25T19:36:26.966Z,4.47
2022-12-25T19:38:54.688Z,3.73
2022-12-25T19:41:23.728Z,3.80
2022-12-25T19:43:52.160Z,2.93
2022-12-25T19:46:22.365Z,1.83
2022-12-25T19:48:50.363Z,2.63
2022-12-25T19:51:19.222Z,2.80
2022-12-25T19:53:47.753Z,2.07
2022-12-25T19:56:16.159Z,5.13
2022-12-25T19:58:45.804Z,2.50
2022-12-25T20:01:16.296Z,1.93
2022-12-25T20:03:46.285Z,2.13
2022-12-25T20:06:18.740Z,2.53
2022-12-25T20:08:46.747Z,2.27
2022-12-25T20:11:15.213Z,2.17
2022-12-25T20:13:42.999Z,4.73
2022-12-25T20:16:12.314Z,2.33
2022-12-25T20:18:40.819Z,1.57
2022-12-25T20:21:11.388Z,2.33
2022-12-25T20:23:39.138Z,1.83
2022-12-25T20:26:07.295Z,2.77
2022-12-25T20:28:36.953Z,3.47
2022-12-25T20:31:07.381Z,1.80
2022-12-25T20:33:37.678Z,1.70
2022-12-25T20:36:07.067Z,2.10
2022-12-25T20:38:35.089Z,2.13
2022-12-25T20:43:53.651Z,2.53
2022-12-25T20:46:21.517Z,3.10
2022-12-25T20:48:51.781Z,3.00
2022-12-25T20:51:21.737Z,2.27
2022-12-25T20:53:50.212Z,3.00
2022-12-25T20:56:21.629Z,2.80
2022-12-25T20:58:53.251Z,3.70
2022-12-25T21:01:21.115Z,3.20
2022-12-25T21:03:50.330Z,2.33
2022-12-25T21:06:18.447Z,2.23
2022-12-25T21:08:46.196Z,2.67
2022-12-25T21:11:15.483Z,3.33
2022-12-25T21:13:45.273Z,3.97
2022-12-25T21:16:16.583Z,2.07
2022-12-25T21:18:44.300Z,2.83
2022-12-25T21:21:13.729Z,3.10
2022-12-25T21:23:41.578Z,2.80
2022-12-25T21:26:14.207Z,1.37
2022-12-25T21:28:41.870Z,4.10
2022-12-25T21:31:09.729Z,3.43
2022-12-25T21:33:52.100Z,3.90
2022-12-25T21:36:26.726Z,2.07
2022-12-25T21:38:56.625Z,2.90
2022-12-25T21:41:25.185Z,2.87
2022-12-25T21:43:52.992Z,2.80
2022-12-25T21:46:20.882Z,3.53
2022-12-25T21:48:48.512Z,2.80
2022-12-25T21:51:36.498Z,2.37
2022-12-25T21:54:06.176Z,2.33
2022-12-25T21:56:43.144Z,4.23
2022-12-25T21:59:14.037Z,2.50
2022-12-25T22:01:41.718Z,4.47
2022-12-25T22:04:12.704Z,5.20
2022-12-25T22:06:57.899Z,2.30
2022-12-25T22:09:26.928Z,2.10
2022-12-25T22:12:12.035Z,2.10
2022-12-25T22:14:56.333Z,2.73
2022-12-25T22:17:44.255Z,10.83
2022-12-25T22:20:15.892Z,2.40
2022-12-25T22:22:44.078Z,2.00
2022-12-25T22:25:14.201Z,3.00
2022-12-25T22:27:43.423Z,2.17
2022-12-25T22:30:13.140Z,5.40
2022-12-25T22:32:41.383Z,2.30
2022-12-25T22:35:09.719Z,2.60
2022-12-25T22:37:38.882Z,3.50
2022-12-25T22:40:07.835Z,2.13
2022-12-25T22:42:37.052Z,4.00
2022-12-25T22:45:05.777Z,1.67
2022-12-25T22:47:33.498Z,2.53
2022-12-25T22:50:01.200Z,2.10
2022-12-25T22:52:28.808Z,1.83
2022-12-25T22:54:56.466Z,2.00
2022-12-25T22:57:24.191Z,2.60
2022-12-25T22:59:53.906Z,1.93
2022-12-25T23:02:21.778Z,3.60
2022-12-25T23:04:49.727Z,1.80
2022-12-25T23:07:17.823Z,1.97
2022-12-25T23:09:46.066Z,3.20
2022-12-25T23:12:27.839Z,2.10
2022-12-25T23:14:57.337Z,2.80
2022-12-25T23:17:42.943Z,2.00
2022-12-25T23:20:31.369Z,1.77
2022-12-25T23:23:16.540Z,4.30
2022-12-25T23:26:01.554Z,2.30
2022-12-25T23:28:43.083Z,2.27
2022-12-25T23:31:12.168Z,3.30
2022-12-25T23:33:39.819Z,5.13
2022-12-25T23:36:07.970Z,11.10
2022-12-25T23:38:35.693Z,13.43
2022-12-25T23:41:03.300Z,9.90
2022-12-25T23:43:31.267Z,10.70
2022-12-25T23:45:59.066Z,6.30
2022-12-25T23:48:28.401Z,2.93
2022-12-25T23:50:56.408Z,2.00
2022-12-25T23:53:24.021Z,5.37
2022-12-25T23:55:55.663Z,2.87
2022-12-25T23:58:23.546Z,1.97
